Time;durP1;ratioP1;P1;durP2;ratioP2;P2;SDS_P1;SDS_P2;PMS_P1;PMS_P2;Temp;Humidity;BMP_temperature;BMP_pressure;BME280_temperature;BME280_humidity;BME280_pressure;Samples;Min_cycle;Max_cycle;Signal;HPM_P1;HPM_P2
2022/01/10 00:00:31;;;;;;;15.60;7.10;;;;;;;;;;4966954;28;107332;-68
2022/01/10 00:02:59;;;;;;;16.52;6.80;;;;;;;;;;4959007;28;106122;-68
2022/01/10 00:05:25;;;;;;;16.95;6.93;;;;;;;;;;4965049;28;106712;-68
2022/01/10 00:07:52;;;;;;;17.65;6.57;;;;;;;;;;4969178;28;107014;-68
2022/01/10 00:10:19;;;;;;;19.58;7.28;;;;;;;;;;4959681;28;107020;-68
2022/01/10 00:12:45;;;;;;;19.73;7.18;;;;;;;;;;4967557;28;106207;-68
2022/01/10 00:15:12;;;;;;;15.55;6.47;;;;;;;;;;4962793;28;106014;-68
2022/01/10 00:17:39;;;;;;;11.60;5.93;;;;;;;;;;4967952;28;107692;-68
2022/01/10 00:20:06;;;;;;;15.30;6.07;;;;;;;;;;4963701;28;106783;-68
2022/01/10 00:22:34;;;;;;;16.63;6.35;;;;;;;;;;4968001;28;106327;-68
2022/01/10 00:25:00;;;;;;;12.77;6.30;;;;;;;;;;4964176;28;107596;-68
2022/01/10 00:27:26;;;;;;;16.02;6.60;;;;;;;;;;4965919;28;107103;-68
2022/01/10 00:29:53;;;;;;;14.07;6.65;;;;;;;;;;4968582;28;107057;-68
2022/01/10 00:32:19;;;;;;;18.00;8.10;;;;;;;;;;4961816;28;105905;-68
2022/01/10 00:34:46;;;;;;;20.00;7.85;;;;;;;;;;4957927;28;106608;-68
2022/01/10 00:37:12;;;;;;;19.20;8.10;;;;;;;;;;4967105;28;107467;-68
2022/01/10 00:39:39;;;;;;;16.30;7.43;;;;;;;;;;4964202;28;107522;-68
2022/01/10 00:42:05;;;;;;;18.67;7.32;;;;;;;;;;4955016;28;106593;-68
2022/01/10 00:44:37;;;;;;;22.73;8.68;;;;;;;;;;4962959;28;109885;-68
2022/01/10 00:47:04;;;;;;;19.98;8.15;;;;;;;;;;4966898;28;106235;-68
2022/01/10 00:49:31;;;;;;;22.67;8.27;;;;;;;;;;4961293;28;107054;-68
2022/01/10 00:51:57;;;;;;;20.02;8.23;;;;;;;;;;4967486;28;107929;-68
2022/01/10 00:54:25;;;;;;;21.98;8.32;;;;;;;;;;4960753;28;106718;-68
2022/01/10 00:56:51;;;;;;;17.85;7.53;;;;;;;;;;4949652;28;109288;-68
2022/01/10 00:59:18;;;;;;;20.15;7.55;;;;;;;;;;4965274;28;106243;-68
2022/01/10 01:01:44;;;;;;;15.57;6.70;;;;;;;;;;4967128;28;107186;-67
2022/01/10 01:04:12;;;;;;;15.68;7.85;;;;;;;;;;4964743;28;106757;-68
2022/01/10 01:06:38;;;;;;;13.27;7.13;;;;;;;;;;4961125;28;106277;-67
2022/01/10 01:09:08;;;;;;;20.35;8.25;;;;;;;;;;4963158;28;106451;-68
2022/01/10 01:14:49;;;;;;;19.15;8.43;;;;;;;;;;4960790;28;108081;-68
2022/01/10 01:17:15;;;;;;;23.02;9.07;;;;;;;;;;4956031;28;106573;-67
2022/01/10 01:25:25;;;;;;;18.88;8.45;;;;;;;;;;4960102;28;107966;-67
2022/01/10 01:27:54;;;;;;;22.67;8.60;;;;;;;;;;4967254;28;106126;-68
2022/01/10 01:30:20;;;;;;;19.30;9.18;;;;;;;;;;4964655;28;108404;-68
2022/01/10 01:32:46;;;;;;;25.48;8.10;;;;;;;;;;4964932;28;108052;-66
2022/01/10 01:35:13;;;;;;;20.25;8.60;;;;;;;;;;4957359;28;107477;-67
2022/01/10 01:37:40;;;;;;;21.60;8.63;;;;;;;;;;4966198;28;106140;-67
2022/01/10 01:40:08;;;;;;;20.92;8.52;;;;;;;;;;4962777;28;105963;-67
2022/01/10 01:42:39;;;;;;;18.33;7.90;;;;;;;;;;4949950;28;108587;-66
2022/01/10 01:45:09;;;;;;;22.77;9.43;;;;;;;;;;4956718;28;109102;-67
2022/01/10 01:47:36;;;;;;;28.23;10.90;;;;;;;;;;4966065;28;106952;-67
2022/01/10 01:50:07;;;;;;;29.38;11.85;;;;;;;;;;4965351;28;106898;-68
2022/01/10 01:52:34;;;;;;;29.20;12.18;;;;;;;;;;4947177;28;107454;-67
2022/01/10 01:55:01;;;;;;;31.13;11.02;;;;;;;;;;4966531;28;105997;-67
2022/01/10 01:57:28;;;;;;;37.95;11.63;;;;;;;;;;4963565;28;108034;-67
2022/01/10 01:59:55;;;;;;;26.85;10.10;;;;;;;;;;4964211;28;109583;-67
2022/01/10 02:02:22;;;;;;;29.55;10.75;;;;;;;;;;4960970;28;108572;-67
2022/01/10 02:04:48;;;;;;;26.40;11.40;;;;;;;;;;4964700;28;107586;-67
2022/01/10 02:07:16;;;;;;;28.13;11.82;;;;;;;;;;4961582;28;106087;-66
2022/01/10 02:09:42;;;;;;;24.63;10.95;;;;;;;;;;4964529;28;107361;-67
2022/01/10 02:12:08;;;;;;;29.52;12.30;;;;;;;;;;4969503;28;107354;-67
2022/01/10 02:14:38;;;;;;;22.48;11.63;;;;;;;;;;4967213;28;107613;-66
2022/01/10 02:17:06;;;;;;;27.33;12.63;;;;;;;;;;4968921;28;108602;-67
2022/01/10 02:19:53;;;;;;;33.92;13.85;;;;;;;;;;4970327;28;109615;-67
2022/01/10 02:22:20;;;;;;;31.80;12.40;;;;;;;;;;4965716;28;108185;-67
2022/01/10 02:25:00;;;;;;;25.27;12.48;;;;;;;;;;4959733;28;108650;-67
2022/01/10 02:27:28;;;;;;;39.20;12.18;;;;;;;;;;4967831;28;107018;-68
2022/01/10 02:29:54;;;;;;;26.02;12.32;;;;;;;;;;4970333;28;106179;-67
2022/01/10 02:32:21;;;;;;;25.33;11.50;;;;;;;;;;4959437;28;106443;-67
2022/01/10 02:34:48;;;;;;;28.52;10.90;;;;;;;;;;4966915;28;108446;-67
2022/01/10 02:37:30;;;;;;;22.83;9.63;;;;;;;;;;4966893;28;108454;-67
2022/01/10 02:39:58;;;;;;;29.15;10.15;;;;;;;;;;4984174;28;107485;-67
2022/01/10 02:42:25;;;;;;;21.58;9.00;;;;;;;;;;4971812;28;106445;-67
2022/01/10 02:44:51;;;;;;;28.90;10.52;;;;;;;;;;4965986;28;108683;-67
2022/01/10 02:47:18;;;;;;;29.33;10.57;;;;;;;;;;4969780;28;106500;-67
2022/01/10 02:49:44;;;;;;;29.10;11.50;;;;;;;;;;4966684;28;108364;-67
2022/01/10 02:52:11;;;;;;;32.35;12.98;;;;;;;;;;4967311;28;108998;-67
2022/01/10 02:54:38;;;;;;;25.05;10.85;;;;;;;;;;4951310;28;106315;-68
2022/01/10 02:57:12;;;;;;;28.30;11.02;;;;;;;;;;4951982;28;108169;-67
2022/01/10 02:59:39;;;;;;;33.95;11.30;;;;;;;;;;4959143;28;106899;-68
2022/01/10 03:02:08;;;;;;;30.27;10.80;;;;;;;;;;4968167;28;107174;-67
2022/01/10 03:04:36;;;;;;;34.05;11.73;;;;;;;;;;4982712;28;108595;-67
2022/01/10 03:07:03;;;;;;;30.38;11.95;;;;;;;;;;4967133;28;107410;-67
2022/01/10 03:09:29;;;;;;;29.02;11.85;;;;;;;;;;4968320;28;107021;-67
2022/01/10 03:11:56;;;;;;;30.15;11.65;;;;;;;;;;4957703;28;109299;-67
2022/01/10 03:14:22;;;;;;;29.17;11.32;;;;;;;;;;4949701;28;107254;-67
2022/01/10 03:16:49;;;;;;;24.40;10.65;;;;;;;;;;4968906;28;109045;-67
2022/01/10 03:19:15;;;;;;;32.47;11.27;;;;;;;;;;4966386;28;107546;-67
2022/01/10 03:21:42;;;;;;;32.42;11.52;;;;;;;;;;4968113;28;106950;-67
2022/01/10 03:24:08;;;;;;;30.52;12.52;;;;;;;;;;4964837;28;106522;-66
2022/01/10 03:26:35;;;;;;;29.08;10.98;;;;;;;;;;4969947;28;107631;-66
2022/01/10 03:29:03;;;;;;;29.63;11.33;;;;;;;;;;4962857;28;108369;-67
2022/01/10 03:31:30;;;;;;;29.30;11.70;;;;;;;;;;4966949;28;107584;-68
2022/01/10 03:33:58;;;;;;;29.60;11.85;;;;;;;;;;4967719;28;107130;-68
2022/01/10 03:36:25;;;;;;;31.92;12.18;;;;;;;;;;4966060;28;108840;-69
2022/01/10 03:38:51;;;;;;;22.08;10.80;;;;;;;;;;4966228;28;109874;-69
2022/01/10 03:41:18;;;;;;;26.90;11.77;;;;;;;;;;4966420;28;106282;-68
2022/01/10 03:43:44;;;;;;;25.70;10.68;;;;;;;;;;4966717;28;107237;-69
2022/01/10 03:46:11;;;;;;;31.52;12.50;;;;;;;;;;4956884;28;109602;-68
2022/01/10 03:48:37;;;;;;;23.20;11.68;;;;;;;;;;4970617;28;105538;-69
2022/01/10 03:51:04;;;;;;;34.78;14.38;;;;;;;;;;4966316;28;108927;-68
2022/01/10 03:53:31;;;;;;;31.02;13.27;;;;;;;;;;4966099;28;106945;-68
2022/01/10 03:55:58;;;;;;;27.58;11.48;;;;;;;;;;4966208;28;108110;-66
2022/01/10 03:58:24;;;;;;;37.30;12.93;;;;;;;;;;4963510;28;109186;-67
2022/01/10 04:00:51;;;;;;;25.17;12.52;;;;;;;;;;4966191;28;107961;-67
2022/01/10 04:03:17;;;;;;;31.33;12.93;;;;;;;;;;4960788;28;106076;-66
2022/01/10 04:05:51;;;;;;;32.08;13.23;;;;;;;;;;4960593;28;109321;-66
2022/01/10 04:08:17;;;;;;;29.98;12.38;;;;;;;;;;4963677;28;105676;-66
2022/01/10 04:10:44;;;;;;;29.88;14.13;;;;;;;;;;4967959;28;107099;-67
2022/01/10 04:13:11;;;;;;;32.95;14.43;;;;;;;;;;4962641;28;107155;-65
2022/01/10 04:15:39;;;;;;;32.58;13.95;;;;;;;;;;4963614;28;109369;-67
2022/01/10 04:18:07;;;;;;;34.67;14.82;;;;;;;;;;4964908;28;106163;-66
2022/01/10 04:20:39;;;;;;;37.80;15.77;;;;;;;;;;4970161;28;106728;-66
2022/01/10 04:23:05;;;;;;;31.50;14.90;;;;;;;;;;4969658;28;108931;-66
2022/01/10 04:25:32;;;;;;;31.75;15.32;;;;;;;;;;4969890;28;107945;-66
2022/01/10 04:27:58;;;;;;;35.45;15.98;;;;;;;;;;4960796;28;106229;-66
2022/01/10 04:30:28;;;;;;;38.58;15.68;;;;;;;;;;4962038;28;108278;-67
2022/01/10 04:32:58;;;;;;;34.03;16.08;;;;;;;;;;4961826;28;106750;-67
2022/01/10 04:35:25;;;;;;;41.10;16.55;;;;;;;;;;4955288;28;109795;-67
2022/01/10 04:37:52;;;;;;;29.85;15.75;;;;;;;;;;4956847;28;109002;-67
2022/01/10 04:40:19;;;;;;;36.25;16.50;;;;;;;;;;4979381;28;105939;-67
2022/01/10 04:42:46;;;;;;;37.28;17.85;;;;;;;;;;4961661;28;108044;-67
2022/01/10 04:45:13;;;;;;;36.15;16.48;;;;;;;;;;4964109;28;107379;-67
2022/01/10 04:47:39;;;;;;;38.65;18.10;;;;;;;;;;4963752;28;105671;-67
2022/01/10 04:52:36;;;;;;;34.65;18.83;;;;;;;;;;4966108;28;106964;-68
2022/01/10 04:55:03;;;;;;;45.63;18.48;;;;;;;;;;4956174;28;107607;-67
2022/01/10 04:57:30;;;;;;;35.28;16.98;;;;;;;;;;4945995;28;109024;-67
2022/01/10 04:59:57;;;;;;;42.95;16.88;;;;;;;;;;4965172;28;106151;-66
2022/01/10 05:02:23;;;;;;;42.08;18.95;;;;;;;;;;4949827;28;108130;-69
2022/01/10 05:04:51;;;;;;;54.80;20.10;;;;;;;;;;4965998;28;108795;-67
2022/01/10 05:07:17;;;;;;;42.60;18.42;;;;;;;;;;4961630;28;105847;-68
2022/01/10 05:09:47;;;;;;;;;;;;;;;;;;4962057;28;108233;-67
2022/01/10 05:12:15;;;;;;;38.42;15.82;;;;;;;;;;4964517;28;108558;-67
2022/01/10 05:14:41;;;;;;;37.28;15.80;;;;;;;;;;4968505;28;106831;-67
2022/01/10 05:17:10;;;;;;;38.88;16.42;;;;;;;;;;4952465;28;107403;-67
2022/01/10 05:19:36;;;;;;;37.00;16.73;;;;;;;;;;4965507;28;106388;-67
2022/01/10 05:22:03;;;;;;;49.53;17.13;;;;;;;;;;4966635;28;107083;-67
2022/01/10 05:24:31;;;;;;;40.20;17.13;;;;;;;;;;4964874;28;108417;-67
2022/01/10 05:26:59;;;;;;;42.53;18.85;;;;;;;;;;4966114;28;106237;-67
2022/01/10 05:29:26;;;;;;;42.88;19.50;;;;;;;;;;4964101;28;108324;-67
2022/01/10 05:31:52;;;;;;;42.65;19.27;;;;;;;;;;4967149;28;109188;-67
2022/01/10 05:34:30;;;;;;;47.78;21.27;;;;;;;;;;4965541;28;106017;-67
2022/01/10 05:36:56;;;;;;;51.58;20.42;;;;;;;;;;4952119;28;109519;-67
2022/01/10 05:39:23;;;;;;;58.92;21.55;;;;;;;;;;4964306;28;106789;-67
2022/01/10 05:41:49;;;;;;;56.65;22.10;;;;;;;;;;4957375;28;107027;-67
2022/01/10 05:44:16;;;;;;;50.53;20.27;;;;;;;;;;4969248;28;109561;-67
2022/01/10 05:46:46;;;;;;;42.40;20.92;;;;;;;;;;4974259;28;106372;-67
2022/01/10 05:49:15;;;;;;;46.47;21.50;;;;;;;;;;4968690;28;108859;-67
2022/01/10 05:51:42;;;;;;;52.33;23.23;;;;;;;;;;4967238;28;108545;-67
2022/01/10 05:54:29;;;;;;;48.05;21.88;;;;;;;;;;4968834;28;106566;-67
2022/01/10 05:56:56;;;;;;;50.53;22.33;;;;;;;;;;4964927;28;108239;-67
2022/01/10 05:59:26;;;;;;;;;;;;;;;;;;4968609;28;108627;-67
2022/01/10 06:01:52;;;;;;;52.17;22.02;;;;;;;;;;4970665;28;124498;-67
2022/01/10 06:04:22;;;;;;;49.40;21.92;;;;;;;;;;4967919;28;108893;-67
2022/01/10 06:06:49;;;;;;;63.58;24.02;;;;;;;;;;4966363;28;106418;-67
2022/01/10 06:09:16;;;;;;;51.80;22.83;;;;;;;;;;4965352;28;108446;-67
2022/01/10 06:11:45;;;;;;;62.13;23.13;;;;;;;;;;4966880;28;108735;-67
2022/01/10 06:14:14;;;;;;;;;;;;;;;;;;4969201;28;107383;-68
2022/01/10 06:16:40;;;;;;;51.10;22.90;;;;;;;;;;4968077;28;108322;-67
2022/01/10 06:19:06;;;;;;;45.00;21.77;;;;;;;;;;4964027;28;106836;-67
2022/01/10 06:21:33;;;;;;;49.95;21.45;;;;;;;;;;4970757;28;107581;-67
2022/01/10 06:24:00;;;;;;;43.97;21.55;;;;;;;;;;4964860;28;109126;-67
2022/01/10 06:26:26;;;;;;;49.72;23.35;;;;;;;;;;4966850;28;105895;-67
2022/01/10 06:28:53;;;;;;;51.97;23.10;;;;;;;;;;4968837;28;108165;-66
2022/01/10 06:31:20;;;;;;;55.65;22.88;;;;;;;;;;4965992;28;108846;-68
2022/01/10 06:33:54;;;;;;;53.08;23.60;;;;;;;;;;4967662;28;105547;-67
2022/01/10 06:36:20;;;;;;;48.75;23.23;;;;;;;;;;4965291;28;106677;-67
2022/01/10 06:38:50;;;;;;;47.05;22.05;;;;;;;;;;4967546;28;108697;-67
2022/01/10 06:41:17;;;;;;;66.30;24.70;;;;;;;;;;4984805;28;107389;-67
2022/01/10 06:43:45;;;;;;;58.33;24.45;;;;;;;;;;4967773;28;107746;-67
2022/01/10 06:46:13;;;;;;;51.15;23.25;;;;;;;;;;4967056;28;108003;-67
2022/01/10 06:48:41;;;;;;;52.65;23.05;;;;;;;;;;4958468;28;108276;-67
2022/01/10 06:51:07;;;;;;;50.40;22.65;;;;;;;;;;4981104;28;107535;-68
2022/01/10 06:53:34;;;;;;;60.15;23.83;;;;;;;;;;4955395;28;106276;-67
2022/01/10 06:56:03;;;;;;;49.58;22.55;;;;;;;;;;4964248;28;107758;-67
2022/01/10 06:58:32;;;;;;;50.92;23.25;;;;;;;;;;4955055;28;107492;-67
2022/01/10 07:00:59;;;;;;;55.25;23.25;;;;;;;;;;4964469;28;106445;-67
2022/01/10 07:03:26;;;;;;;61.80;24.50;;;;;;;;;;4969179;28;107567;-67
2022/01/10 07:06:03;;;;;;;60.92;23.88;;;;;;;;;;4968013;28;106288;-67
2022/01/10 07:08:30;;;;;;;56.78;23.45;;;;;;;;;;4966820;28;107987;-67
2022/01/10 07:10:59;;;;;;;56.63;23.60;;;;;;;;;;4964295;28;109139;-68
2022/01/10 07:13:28;;;;;;;52.30;24.40;;;;;;;;;;4967507;28;106032;-67
2022/01/10 07:16:00;;;;;;;65.72;24.17;;;;;;;;;;4967667;28;108501;-67
2022/01/10 07:18:26;;;;;;;63.25;24.02;;;;;;;;;;4967590;28;109078;-67
2022/01/10 07:20:56;;;;;;;53.60;24.80;;;;;;;;;;4962175;28;106177;-67
2022/01/10 07:23:23;;;;;;;48.97;24.00;;;;;;;;;;4968363;28;108241;-67
2022/01/10 07:25:50;;;;;;;58.15;26.35;;;;;;;;;;4962681;28;107837;-65
2022/01/10 07:28:16;;;;;;;59.22;23.70;;;;;;;;;;4967574;28;110273;-67
2022/01/10 07:30:43;;;;;;;54.90;23.58;;;;;;;;;;4967985;28;106839;-68
2022/01/10 07:33:09;;;;;;;51.58;24.67;;;;;;;;;;4965687;28;106425;-67
2022/01/10 07:35:35;;;;;;;60.35;23.77;;;;;;;;;;4961605;28;106204;-67
2022/01/10 07:38:02;;;;;;;56.55;25.48;;;;;;;;;;4968552;28;109150;-67
2022/01/10 07:40:28;;;;;;;49.92;24.63;;;;;;;;;;4967790;28;106391;-67
2022/01/10 07:42:55;;;;;;;52.50;24.70;;;;;;;;;;4960919;28;108101;-67
2022/01/10 07:45:34;;;;;;;63.17;23.13;;;;;;;;;;4962624;28;109579;-67
2022/01/10 07:48:00;;;;;;;55.75;22.63;;;;;;;;;;4971230;28;106292;-67
2022/01/10 07:50:27;;;;;;;54.20;22.98;;;;;;;;;;4967264;28;106646;-68
2022/01/10 07:52:53;;;;;;;47.92;22.05;;;;;;;;;;4965863;28;106481;-68
2022/01/10 07:55:20;;;;;;;54.20;22.77;;;;;;;;;;4968360;28;107107;-67
2022/01/10 07:57:46;;;;;;;54.25;23.02;;;;;;;;;;4965696;28;106513;-68
2022/01/10 08:00:13;;;;;;;46.53;20.92;;;;;;;;;;4964176;28;106196;-68
2022/01/10 08:02:39;;;;;;;82.55;26.42;;;;;;;;;;4964749;28;106184;-68
2022/01/10 08:05:07;;;;;;;54.20;23.58;;;;;;;;;;4961260;28;107357;-68
2022/01/10 08:07:34;;;;;;;48.47;21.23;;;;;;;;;;4965534;28;106067;-68
2022/01/10 08:10:02;;;;;;;50.50;22.98;;;;;;;;;;4971469;28;106174;-68
2022/01/10 08:12:28;;;;;;;57.25;23.80;;;;;;;;;;4956258;28;107369;-68
2022/01/10 08:14:55;;;;;;;52.55;23.92;;;;;;;;;;4963342;28;107002;-67
2022/01/10 08:17:21;;;;;;;57.88;25.45;;;;;;;;;;4965677;28;106570;-67
2022/01/10 08:19:48;;;;;;;52.65;22.63;;;;;;;;;;4961141;28;106251;-67
2022/01/10 08:22:14;;;;;;;54.13;22.40;;;;;;;;;;4962794;28;107301;-67
2022/01/10 08:24:41;;;;;;;62.67;24.38;;;;;;;;;;4965229;28;107477;-66
2022/01/10 08:27:07;;;;;;;52.22;23.30;;;;;;;;;;4969503;28;105486;-69
2022/01/10 08:29:34;;;;;;;57.33;23.48;;;;;;;;;;4956861;28;107061;-67
2022/01/10 08:32:00;;;;;;;52.47;23.30;;;;;;;;;;4958709;28;107201;-67
2022/01/10 08:34:26;;;;;;;61.35;25.10;;;;;;;;;;4956039;28;106401;-68
2022/01/10 08:36:54;;;;;;;63.70;25.90;;;;;;;;;;4967611;28;106301;-66
2022/01/10 08:39:21;;;;;;;56.15;25.55;;;;;;;;;;4963430;28;106054;-68
2022/01/10 08:41:47;;;;;;;55.88;24.63;;;;;;;;;;4962106;28;107683;-67
2022/01/10 08:44:14;;;;;;;58.00;24.83;;;;;;;;;;4962404;28;107946;-68
2022/01/10 08:46:41;;;;;;;61.90;26.20;;;;;;;;;;4963100;28;107814;-67
2022/01/10 08:49:07;;;;;;;60.00;26.27;;;;;;;;;;4961117;28;106441;-69
2022/01/10 08:51:34;;;;;;;56.30;24.95;;;;;;;;;;4969818;28;106655;-67
2022/01/10 08:54:02;;;;;;;57.83;25.35;;;;;;;;;;4964521;28;107511;-71
2022/01/10 08:56:29;;;;;;;63.78;25.85;;;;;;;;;;4963722;28;106570;-66
2022/01/10 08:58:55;;;;;;;56.63;24.75;;;;;;;;;;4957790;28;106013;-67
2022/01/10 09:01:21;;;;;;;57.97;26.15;;;;;;;;;;4966178;28;107243;-67
2022/01/10 09:03:48;;;;;;;66.68;25.55;;;;;;;;;;4963126;28;106669;-68
2022/01/10 09:06:15;;;;;;;55.85;25.67;;;;;;;;;;4962352;28;106803;-68
2022/01/10 09:08:43;;;;;;;61.20;27.08;;;;;;;;;;4964444;28;106440;-68
2022/01/10 09:11:10;;;;;;;59.42;27.00;;;;;;;;;;4959621;28;106447;-68
2022/01/10 09:13:36;;;;;;;55.40;24.13;;;;;;;;;;4971602;28;106395;-67
2022/01/10 09:16:03;;;;;;;60.25;26.35;;;;;;;;;;4966188;28;107764;-67
2022/01/10 09:18:29;;;;;;;50.88;23.40;;;;;;;;;;4964034;28;105956;-68
2022/01/10 09:20:56;;;;;;;56.25;24.30;;;;;;;;;;4961732;28;108309;-67
2022/01/10 09:23:23;;;;;;;50.28;23.17;;;;;;;;;;4961173;28;107694;-67
2022/01/10 09:25:49;;;;;;;55.22;25.00;;;;;;;;;;4955263;28;105987;-67
2022/01/10 09:28:16;;;;;;;50.30;23.80;;;;;;;;;;4965853;28;107607;-67
2022/01/10 09:30:42;;;;;;;58.65;25.55;;;;;;;;;;4956045;28;107245;-67
2022/01/10 09:33:09;;;;;;;54.20;27.90;;;;;;;;;;4962511;28;105980;-67
2022/01/10 09:35:36;;;;;;;59.30;26.58;;;;;;;;;;4957091;28;107204;-67
2022/01/10 09:38:02;;;;;;;59.60;26.55;;;;;;;;;;4948490;28;106911;-67
2022/01/10 09:40:29;;;;;;;64.22;25.73;;;;;;;;;;4951256;28;106432;-68
2022/01/10 09:42:55;;;;;;;67.22;27.65;;;;;;;;;;4960473;28;108009;-67
2022/01/10 09:45:22;;;;;;;70.47;27.52;;;;;;;;;;4957421;28;106391;-67
2022/01/10 09:47:48;;;;;;;59.55;28.42;;;;;;;;;;4954739;28;107246;-67
2022/01/10 09:50:16;;;;;;;58.58;26.70;;;;;;;;;;4948285;28;108404;-68
2022/01/10 09:52:43;;;;;;;51.63;25.60;;;;;;;;;;4960646;28;106083;-67
2022/01/10 09:55:10;;;;;;;50.80;26.73;;;;;;;;;;4949091;28;107259;-67
2022/01/10 09:57:36;;;;;;;60.47;26.50;;;;;;;;;;4954330;28;107410;-67
2022/01/10 10:00:04;;;;;;;55.67;27.52;;;;;;;;;;4962895;28;108427;-67
2022/01/10 10:02:37;;;;;;;56.72;26.10;;;;;;;;;;4955996;28;106735;-67
2022/01/10 10:05:04;;;;;;;58.17;26.92;;;;;;;;;;4964748;28;106275;-67
2022/01/10 10:07:31;;;;;;;56.08;26.38;;;;;;;;;;4951306;28;106880;-68
2022/01/10 10:10:03;;;;;;;64.50;26.83;;;;;;;;;;4949916;28;107828;-67
2022/01/10 10:12:29;;;;;;;66.95;26.08;;;;;;;;;;4948443;28;106017;-67
2022/01/10 10:14:56;;;;;;;53.47;25.60;;;;;;;;;;4949620;28;107232;-67
2022/01/10 10:17:23;;;;;;;59.90;26.58;;;;;;;;;;4954058;28;107166;-66
2022/01/10 10:19:49;;;;;;;55.72;27.05;;;;;;;;;;4963754;28;106340;-67
2022/01/10 10:22:16;;;;;;;63.15;27.73;;;;;;;;;;4954002;28;107002;-67
2022/01/10 10:24:46;;;;;;;60.55;27.50;;;;;;;;;;4963083;28;106242;-67
2022/01/10 10:27:12;;;;;;;;;;;;;;;;;;4954421;28;106674;-67
2022/01/10 10:29:48;;;;;;;46.88;23.85;;;;;;;;;;4960983;28;138691;-67
2022/01/10 10:32:15;;;;;;;52.72;25.15;;;;;;;;;;4961971;28;105533;-67
2022/01/10 10:34:42;;;;;;;58.80;26.27;;;;;;;;;;4969400;28;106604;-67
2022/01/10 10:37:13;;;;;;;53.45;25.17;;;;;;;;;;4967834;28;106374;-68
2022/01/10 10:39:44;;;;;;;59.97;26.88;;;;;;;;;;4971234;28;106427;-67
2022/01/10 10:42:11;;;;;;;51.58;25.85;;;;;;;;;;4962386;28;107455;-69
2022/01/10 10:44:38;;;;;;;55.47;25.55;;;;;;;;;;4969514;28;106744;-68
2022/01/10 10:47:05;;;;;;;55.80;25.02;;;;;;;;;;4969673;28;107098;-67
2022/01/10 10:49:36;;;;;;;55.75;25.85;;;;;;;;;;4966032;28;108042;-67
2022/01/10 10:52:05;;;;;;;53.10;24.95;;;;;;;;;;4970429;28;105628;-67
2022/01/10 10:54:32;;;;;;;50.45;26.65;;;;;;;;;;4960352;28;106735;-67
2022/01/10 10:57:00;;;;;;;58.92;27.17;;;;;;;;;;4961257;28;108365;-67
2022/01/10 10:59:30;;;;;;;59.22;26.63;;;;;;;;;;4969021;28;105781;-67
2022/01/10 11:01:57;;;;;;;54.50;24.25;;;;;;;;;;4964999;28;106485;-67
2022/01/10 11:04:30;;;;;;;54.30;23.20;;;;;;;;;;4959833;28;107073;-67
2022/01/10 11:06:57;;;;;;;62.65;24.33;;;;;;;;;;4967550;28;107066;-66
2022/01/10 11:09:24;;;;;;;51.45;22.55;;;;;;;;;;4966695;28;107507;-67
2022/01/10 11:11:50;;;;;;;49.20;23.67;;;;;;;;;;4968741;28;106438;-67
2022/01/10 11:14:18;;;;;;;53.92;24.52;;;;;;;;;;4962184;28;107917;-67
2022/01/10 11:16:45;;;;;;;48.83;23.38;;;;;;;;;;4960843;28;106414;-67
2022/01/10 11:19:11;;;;;;;48.40;23.40;;;;;;;;;;4967926;28;106676;-67
2022/01/10 11:21:39;;;;;;;61.70;22.98;;;;;;;;;;4956479;28;106274;-68
2022/01/10 11:24:06;;;;;;;49.72;23.08;;;;;;;;;;4971743;28;107153;-67
2022/01/10 11:26:35;;;;;;;51.97;23.20;;;;;;;;;;4967926;28;107603;-67
2022/01/10 11:29:02;;;;;;;53.50;23.75;;;;;;;;;;4967874;28;107477;-67
2022/01/10 11:31:28;;;;;;;49.50;23.00;;;;;;;;;;4971089;28;106091;-69
2022/01/10 11:33:56;;;;;;;46.92;22.70;;;;;;;;;;4966386;28;108786;-67
2022/01/10 11:36:24;;;;;;;52.85;22.50;;;;;;;;;;4968088;28;107516;-67
2022/01/10 11:38:52;;;;;;;46.13;21.88;;;;;;;;;;4968809;28;107621;-67
2022/01/10 11:41:21;;;;;;;41.80;20.90;;;;;;;;;;4963073;28;106959;-68
2022/01/10 11:44:03;;;;;;;53.17;23.60;;;;;;;;;;4969020;28;107159;-68
2022/01/10 11:46:36;;;;;;;46.92;21.15;;;;;;;;;;4969174;28;106211;-67
2022/01/10 11:49:09;;;;;;;43.72;21.15;;;;;;;;;;4967921;28;106465;-67
2022/01/10 11:51:37;;;;;;;49.65;21.90;;;;;;;;;;4964600;28;106045;-67
2022/01/10 11:54:13;;;;;;;43.03;20.70;;;;;;;;;;4967670;28;106592;-67
2022/01/10 11:56:41;;;;;;;48.72;21.80;;;;;;;;;;4965349;28;106682;-67
2022/01/10 11:59:12;;;;;;;44.70;20.88;;;;;;;;;;4959601;28;106032;-68
2022/01/10 12:01:40;;;;;;;50.70;21.80;;;;;;;;;;4965864;28;107563;-67
2022/01/10 12:04:06;;;;;;;42.25;18.98;;;;;;;;;;4966434;28;109724;-68
2022/01/10 12:06:34;;;;;;;45.45;20.85;;;;;;;;;;4966603;28;106154;-67
2022/01/10 12:09:00;;;;;;;41.80;19.85;;;;;;;;;;4967100;28;106317;-67
2022/01/10 12:11:27;;;;;;;45.88;20.95;;;;;;;;;;4966558;28;106660;-67
2022/01/10 12:13:59;;;;;;;48.67;21.27;;;;;;;;;;4967672;28;107572;-67
2022/01/10 12:16:27;;;;;;;41.03;20.90;;;;;;;;;;4966010;28;106723;-67
2022/01/10 12:18:54;;;;;;;43.60;21.30;;;;;;;;;;4964107;28;106779;-67
2022/01/10 12:21:20;;;;;;;48.92;19.95;;;;;;;;;;4949157;28;107645;-67
2022/01/10 12:23:47;;;;;;;39.20;18.40;;;;;;;;;;4968087;28;107818;-67
2022/01/10 12:26:13;;;;;;;41.00;17.70;;;;;;;;;;4966492;28;105882;-67
2022/01/10 12:28:40;;;;;;;37.72;18.42;;;;;;;;;;4967529;28;107199;-66
2022/01/10 12:31:06;;;;;;;42.53;18.73;;;;;;;;;;4965314;28;107389;-68
2022/01/10 12:33:33;;;;;;;37.65;19.27;;;;;;;;;;4963824;28;106719;-67
2022/01/10 12:36:02;;;;;;;44.38;17.52;;;;;;;;;;4960793;28;106398;-67
2022/01/10 12:38:28;;;;;;;47.13;18.20;;;;;;;;;;4962392;28;106037;-68
2022/01/10 12:40:55;;;;;;;43.42;18.77;;;;;;;;;;4959494;28;106842;-68
2022/01/10 12:43:21;;;;;;;41.03;17.80;;;;;;;;;;4965319;28;107740;-67
2022/01/10 12:45:49;;;;;;;40.78;17.58;;;;;;;;;;4959780;28;105761;-66
2022/01/10 12:48:15;;;;;;;40.67;17.15;;;;;;;;;;4965092;28;107428;-69
2022/01/10 12:50:45;;;;;;;43.35;16.52;;;;;;;;;;4962176;28;107396;-67
2022/01/10 12:53:11;;;;;;;40.83;18.50;;;;;;;;;;4964500;28;107221;-68
2022/01/10 12:55:42;;;;;;;37.88;17.42;;;;;;;;;;4960796;28;106778;-68
2022/01/10 12:58:09;;;;;;;42.30;19.85;;;;;;;;;;4962099;28;106292;-68
2022/01/10 13:00:35;;;;;;;41.40;17.55;;;;;;;;;;4966927;28;106813;-68
2022/01/10 13:03:04;;;;;;;45.97;18.85;;;;;;;;;;4965238;28;107587;-68
2022/01/10 13:05:31;;;;;;;49.13;18.98;;;;;;;;;;4955176;28;106048;-68
2022/01/10 13:07:59;;;;;;;41.67;16.85;;;;;;;;;;4946345;28;108413;-68
2022/01/10 13:10:32;;;;;;;38.85;17.13;;;;;;;;;;4957273;28;107909;-68
2022/01/10 13:13:01;;;;;;;47.30;17.95;;;;;;;;;;4969695;28;106456;-68
2022/01/10 13:15:31;;;;;;;43.45;15.60;;;;;;;;;;4965497;28;108599;-67
2022/01/10 13:17:59;;;;;;;38.38;15.93;;;;;;;;;;4965808;28;105812;-67
2022/01/10 13:20:27;;;;;;;38.50;16.30;;;;;;;;;;4963641;28;106310;-67
2022/01/10 13:22:58;;;;;;;40.75;15.70;;;;;;;;;;4968256;28;106851;-67
2022/01/10 13:25:24;;;;;;;35.38;15.75;;;;;;;;;;4959313;28;106847;-67
2022/01/10 13:27:58;;;;;;;50.50;16.95;;;;;;;;;;4958464;28;108218;-67
2022/01/10 13:30:26;;;;;;;35.83;15.38;;;;;;;;;;4963827;28;106727;-68
2022/01/10 13:32:53;;;;;;;35.60;16.02;;;;;;;;;;4966736;28;106514;-67
2022/01/10 13:35:20;;;;;;;34.85;15.30;;;;;;;;;;4968612;28;107075;-67
2022/01/10 13:38:14;;;;;;;37.50;15.68;;;;;;;;;;4966695;28;106536;-67
2022/01/10 13:40:42;;;;;;;33.95;16.67;;;;;;;;;;4966637;28;106006;-67
2022/01/10 13:43:10;;;;;;;42.03;17.52;;;;;;;;;;4964771;28;106496;-67
2022/01/10 13:45:41;;;;;;;44.83;16.77;;;;;;;;;;4956819;28;107741;-67
2022/01/10 13:48:12;;;;;;;41.25;16.77;;;;;;;;;;4963631;28;107547;-68
2022/01/10 13:50:44;;;;;;;40.22;17.10;;;;;;;;;;4961855;28;107094;-67
2022/01/10 13:53:12;;;;;;;44.35;18.08;;;;;;;;;;4965303;28;106231;-67
2022/01/10 13:55:39;;;;;;;42.08;17.00;;;;;;;;;;4963910;28;107070;-66
2022/01/10 13:58:21;;;;;;;41.92;19.10;;;;;;;;;;4968995;28;108261;-67
2022/01/10 14:00:58;;;;;;;41.20;18.08;;;;;;;;;;4966971;28;106280;-67
2022/01/10 14:03:26;;;;;;;42.80;19.52;;;;;;;;;;4959378;28;107685;-67
2022/01/10 14:06:06;;;;;;;43.78;18.05;;;;;;;;;;4967362;28;106164;-67
2022/01/10 14:08:33;;;;;;;50.28;19.98;;;;;;;;;;4969508;28;106702;-68
2022/01/10 14:11:01;;;;;;;38.60;18.38;;;;;;;;;;4957665;28;106916;-67
2022/01/10 14:13:28;;;;;;;44.90;20.48;;;;;;;;;;4968004;28;107797;-67
2022/01/10 14:15:55;;;;;;;46.00;19.10;;;;;;;;;;4966060;28;109105;-67
2022/01/10 14:18:21;;;;;;;46.88;19.40;;;;;;;;;;4961663;28;106172;-67
2022/01/10 14:20:48;;;;;;;41.25;18.88;;;;;;;;;;4965614;28;107908;-66